createdAt,value
2019-06-25T00:00:27.072Z,25.64
2019-06-25T00:01:07.560Z,25.74
2019-06-25T00:01:48.046Z,25.71
2019-06-25T00:02:28.531Z,25.78
2019-06-25T00:03:08.996Z,25.74
2019-06-25T00:03:49.491Z,25.69
2019-06-25T00:04:29.973Z,25.72
2019-06-25T00:05:10.458Z,25.74
2019-06-25T00:05:50.959Z,25.75
2019-06-25T00:06:31.418Z,25.71
2019-06-25T00:07:11.894Z,25.75
2019-06-25T00:07:52.374Z,25.74
2019-06-25T00:08:32.867Z,25.74
2019-06-25T00:09:13.346Z,25.72
2019-06-25T00:09:53.884Z,25.61
2019-06-25T00:10:34.381Z,25.6
2019-06-25T00:11:14.852Z,25.49
2019-06-25T00:11:55.338Z,25.56
2019-06-25T00:12:35.819Z,25.42
2019-06-25T00:13:16.266Z,25.38
2019-06-25T00:13:56.743Z,25.24
2019-06-25T00:14:37.233Z,25.2
2019-06-25T00:15:17.701Z,25.09
2019-06-25T00:15:58.185Z,24.93
2019-06-25T00:16:38.693Z,24.93
2019-06-25T00:17:59.639Z,24.83
2019-06-25T00:18:40.107Z,24.79
2019-06-25T00:19:20.595Z,24.7
2019-06-25T00:20:01.096Z,24.68
2019-06-25T00:20:41.589Z,24.68
2019-06-25T00:21:22.057Z,24.7
2019-06-25T00:22:02.551Z,24.66
2019-06-25T00:22:43.051Z,24.68
2019-06-25T00:23:23.530Z,24.7
2019-06-25T00:24:04.013Z,24.68
2019-06-25T00:24:44.517Z,24.68
2019-06-25T00:25:24.982Z,24.68
2019-06-25T00:26:05.471Z,24.71
2019-06-25T00:26:45.965Z,24.67
2019-06-25T00:27:26.464Z,24.63
2019-06-25T00:28:06.940Z,24.66
2019-06-25T00:28:47.415Z,24.67
2019-06-25T00:29:27.895Z,24.74
2019-06-25T00:30:08.383Z,24.68
2019-06-25T00:30:49.028Z,24.7
2019-06-25T00:31:29.511Z,24.67
2019-06-25T00:32:10.012Z,24.61
2019-06-25T00:33:30.963Z,24.68
2019-06-25T00:34:11.451Z,24.71
2019-06-25T00:34:51.927Z,24.7
2019-06-25T00:35:32.415Z,24.7
2019-06-25T00:36:12.989Z,24.7
2019-06-25T00:36:53.430Z,24.68
2019-06-25T00:37:33.870Z,24.64
2019-06-25T00:38:14.354Z,24.61
2019-06-25T00:38:54.844Z,24.67
2019-06-25T00:39:35.340Z,24.68
2019-06-25T00:40:15.819Z,24.67
2019-06-25T00:40:56.294Z,24.66
2019-06-25T00:41:36.781Z,24.68
2019-06-25T00:42:17.262Z,24.64
2019-06-25T00:43:38.237Z,24.64
2019-06-25T00:44:18.728Z,24.61
2019-06-25T00:44:59.209Z,24.61
2019-06-25T00:45:39.702Z,24.6
2019-06-25T00:46:20.180Z,24.53
2019-06-25T00:47:00.670Z,24.44
2019-06-25T00:47:41.164Z,24.37
2019-06-25T00:48:21.637Z,24.33
2019-06-25T00:49:02.124Z,24.33
2019-06-25T00:49:42.632Z,24.26
2019-06-25T00:50:23.103Z,24.23
2019-06-25T00:51:03.566Z,24.21
2019-06-25T00:51:44.040Z,24.18
2019-06-25T00:52:24.533Z,24.16
2019-06-25T00:53:05.006Z,24.18
2019-06-25T00:53:45.486Z,24.14
2019-06-25T00:54:25.972Z,24.18
2019-06-25T00:55:06.460Z,24.15
2019-06-25T00:55:46.942Z,24.18
2019-06-25T00:56:27.427Z,24.15
2019-06-25T00:57:07.879Z,24.04
2019-06-25T00:57:48.361Z,24.11
2019-06-25T00:58:28.818Z,23.99
2019-06-25T00:59:09.321Z,23.93
2019-06-25T00:59:49.776Z,24.02
2019-06-25T01:01:10.749Z,23.94
2019-06-25T01:01:51.245Z,23.94
2019-06-25T01:02:31.686Z,23.94
2019-06-25T01:03:12.173Z,23.94
2019-06-25T01:03:52.637Z,23.93
2019-06-25T01:04:33.115Z,23.84
2019-06-25T01:05:13.595Z,23.81
2019-06-25T01:05:54.060Z,23.94
2019-06-25T01:06:34.535Z,23.93
2019-06-25T01:07:15.021Z,23.84
2019-06-25T01:07:55.517Z,23.9
2019-06-25T01:08:36.000Z,23.9
2019-06-25T01:09:16.489Z,23.86
2019-06-25T01:09:56.972Z,23.82
2019-06-25T01:10:37.468Z,23.87
2019-06-25T01:11:17.927Z,23.86
2019-06-25T01:11:58.396Z,23.93
2019-06-25T01:12:38.886Z,24
2019-06-25T01:13:59.816Z,23.93
2019-06-25T01:14:40.316Z,23.9
2019-06-25T01:15:20.758Z,23.92
2019-06-25T01:16:01.431Z,23.99
2019-06-25T01:16:41.923Z,23.96
2019-06-25T01:17:22.391Z,24
2019-06-25T01:18:02.877Z,23.96
2019-06-25T01:18:43.425Z,23.97
2019-06-25T01:19:23.829Z,23.96
2019-06-25T01:20:04.322Z,24.02
2019-06-25T01:20:44.759Z,24.11
2019-06-25T01:21:25.246Z,24.02
2019-06-25T01:22:05.704Z,24.04
2019-06-25T01:22:46.162Z,24.05
2019-06-25T01:23:26.624Z,24.05
2019-06-25T01:24:07.119Z,23.96
2019-06-25T01:24:47.609Z,23.99
2019-06-25T01:25:28.084Z,24.06
2019-06-25T01:26:08.557Z,24.04
2019-06-25T01:26:51.188Z,24.09
2019-06-25T01:27:29.501Z,24.14
2019-06-25T01:28:09.977Z,24.19
2019-06-25T01:28:50.468Z,24.18
2019-06-25T01:29:30.943Z,24.16
2019-06-25T01:30:11.475Z,24.16
2019-06-25T01:31:32.375Z,24.14
2019-06-25T01:32:12.849Z,24.18
2019-06-25T01:32:53.326Z,24.12
2019-06-25T01:33:33.827Z,24.14
2019-06-25T01:34:14.307Z,24.06
2019-06-25T01:34:54.821Z,24.15
2019-06-25T01:35:35.246Z,24.06
2019-06-25T01:36:15.744Z,24.08
2019-06-25T01:36:56.241Z,24.12
2019-06-25T01:37:36.712Z,24.14
2019-06-25T01:38:17.191Z,24.15
2019-06-25T01:38:57.658Z,24.04
2019-06-25T01:39:38.118Z,24.11
2019-06-25T01:40:18.634Z,24.18
2019-06-25T01:40:59.038Z,24.06
2019-06-25T01:41:39.702Z,24.18
2019-06-25T01:42:20.050Z,24.09
2019-06-25T01:43:00.503Z,24.04
2019-06-25T01:43:40.968Z,24.09
2019-06-25T01:44:21.462Z,24.08
2019-06-25T01:45:01.968Z,24.09
2019-06-25T01:45:42.426Z,24.08
2019-06-25T01:46:22.908Z,24.06
2019-06-25T01:47:03.418Z,24.08
2019-06-25T01:47:43.901Z,24.12
2019-06-25T01:48:24.315Z,24.04
2019-06-25T01:49:04.785Z,24.04
2019-06-25T01:49:45.236Z,23.9
2019-06-25T01:50:25.747Z,23.99
2019-06-25T01:51:06.240Z,23.94
2019-06-25T01:51:46.706Z,24
2019-06-25T01:52:27.192Z,23.93
2019-06-25T01:53:07.668Z,23.93
2019-06-25T01:53:48.170Z,23.96
2019-06-25T01:54:28.640Z,23.99
2019-06-25T01:55:09.141Z,23.93
2019-06-25T01:56:30.075Z,23.87
2019-06-25T01:57:10.576Z,23.84
2019-06-25T01:57:51.033Z,23.87
2019-06-25T01:58:31.499Z,23.9
2019-06-25T01:59:11.954Z,23.93
2019-06-25T01:59:52.428Z,23.87
2019-06-25T02:00:44.130Z,23.9
2019-06-25T02:01:15.002Z,23.87
2019-06-25T02:01:55.508Z,23.87
2019-06-25T02:02:36.005Z,23.87
2019-06-25T02:03:16.435Z,23.93
2019-06-25T02:03:56.931Z,23.81
2019-06-25T02:04:37.360Z,23.81
2019-06-25T02:05:17.857Z,23.78
2019-06-25T02:05:58.356Z,23.78
2019-06-25T02:06:38.768Z,23.78
2019-06-25T02:07:19.207Z,23.71
2019-06-25T02:07:59.695Z,23.67
2019-06-25T02:08:40.125Z,23.72
2019-06-25T02:09:20.627Z,23.62
2019-06-25T02:10:01.049Z,23.74
2019-06-25T02:10:41.540Z,23.71
2019-06-25T02:11:22.022Z,23.67
2019-06-25T02:12:02.455Z,23.69
2019-06-25T02:12:42.950Z,23.64
2019-06-25T02:13:23.390Z,23.67
2019-06-25T02:14:03.891Z,23.67
2019-06-25T02:14:44.395Z,23.67
2019-06-25T02:15:24.839Z,23.67
2019-06-25T02:16:05.315Z,23.67
2019-06-25T02:16:45.807Z,23.69
2019-06-25T02:17:26.329Z,23.67
2019-06-25T02:18:06.783Z,23.57
2019-06-25T02:18:47.226Z,23.59
2019-06-25T02:19:27.667Z,23.67
2019-06-25T02:20:08.167Z,23.54
2019-06-25T02:21:29.124Z,23.69
2019-06-25T02:22:09.618Z,23.69
2019-06-25T02:22:50.100Z,23.63
2019-06-25T02:23:30.580Z,23.74
2019-06-25T02:24:11.062Z,23.74
2019-06-25T02:24:51.548Z,23.64
2019-06-25T02:25:32.045Z,23.72
2019-06-25T02:26:12.514Z,23.71
2019-06-25T02:26:53.014Z,23.78
2019-06-25T02:27:33.498Z,23.69
2019-06-25T02:28:13.977Z,23.74
2019-06-25T02:28:54.445Z,23.75
2019-06-25T02:29:34.923Z,23.74
2019-06-25T02:30:15.375Z,23.81
2019-06-25T02:31:07.047Z,23.78
2019-06-25T02:31:36.302Z,23.74
2019-06-25T02:32:16.784Z,23.64
2019-06-25T02:32:57.275Z,23.69
2019-06-25T02:33:37.742Z,23.68
2019-06-25T02:34:18.270Z,23.69
2019-06-25T02:34:58.822Z,23.67
2019-06-25T02:35:39.183Z,23.56
2019-06-25T02:36:19.677Z,23.47
2019-06-25T02:37:00.162Z,23.59
2019-06-25T02:37:40.656Z,23.42
2019-06-25T02:38:21.150Z,23.47
2019-06-25T02:39:01.637Z,23.44
2019-06-25T02:39:42.115Z,23.39
2019-06-25T02:40:22.558Z,23.45
2019-06-25T02:41:03.028Z,23.39
2019-06-25T02:41:43.917Z,23.38
2019-06-25T02:42:24.311Z,23.39
2019-06-25T02:43:04.766Z,23.35
2019-06-25T02:43:45.280Z,23.32
2019-06-25T02:44:25.717Z,23.22
2019-06-25T02:45:06.210Z,23.18
2019-06-25T02:45:46.672Z,23.16
2019-06-25T02:46:27.152Z,23.12
2019-06-25T02:47:07.666Z,23.07
2019-06-25T02:47:48.112Z,23.14
2019-06-25T02:48:28.577Z,23.12
2019-06-25T02:49:09.118Z,23.15
2019-06-25T02:49:49.940Z,23.22
2019-06-25T02:50:30.348Z,23.15
2019-06-25T02:51:10.820Z,23.12
2019-06-25T02:51:51.319Z,23.18
2019-06-25T02:52:31.749Z,23.14
2019-06-25T02:53:12.278Z,23.01
2019-06-25T02:53:52.747Z,23.03
2019-06-25T02:54:33.226Z,23.06
2019-06-25T02:55:13.771Z,23.14
2019-06-25T02:55:54.277Z,23.09
2019-06-25T02:56:34.994Z,23.11
2019-06-25T02:57:15.471Z,23
2019-06-25T02:57:55.970Z,22.93
2019-06-25T02:58:36.418Z,22.96
2019-06-25T02:59:16.900Z,22.89
2019-06-25T02:59:57.381Z,22.93
2019-06-25T03:01:28.318Z,22.89
2019-06-25T03:01:58.812Z,22.86
2019-06-25T03:02:39.301Z,22.91
2019-06-25T03:03:19.752Z,22.79
2019-06-25T03:04:00.224Z,22.76
2019-06-25T03:04:40.792Z,22.72
2019-06-25T03:05:21.149Z,22.67
2019-06-25T03:06:01.633Z,22.79
2019-06-25T03:06:42.085Z,22.75
2019-06-25T03:07:22.558Z,22.75
2019-06-25T03:08:03.055Z,22.75
2019-06-25T03:08:43.869Z,22.76
2019-06-25T03:09:24.408Z,22.72
2019-06-25T03:10:04.841Z,22.75
2019-06-25T03:10:45.357Z,22.72
2019-06-25T03:12:43.774Z,22.64
2019-06-25T03:14:21.060Z,22.59
2019-06-25T03:15:06.745Z,22.66
2019-06-25T03:15:48.403Z,22.61
2019-06-25T03:16:32.612Z,22.66
2019-06-25T03:17:14.199Z,22.7
2019-06-25T03:17:55.617Z,22.67
2019-06-25T03:18:37.121Z,22.67
2019-06-25T03:19:18.801Z,22.72
2019-06-25T03:20:04.054Z,22.72
2019-06-25T03:20:46.398Z,22.72
2019-06-25T03:21:25.720Z,22.78
2019-06-25T03:22:07.951Z,22.75
2019-06-25T03:22:49.378Z,22.74
2019-06-25T03:23:30.719Z,22.79
2019-06-25T03:24:12.012Z,22.79
2019-06-25T03:24:53.917Z,22.82
2019-06-25T03:25:34.376Z,22.85
2019-06-25T03:26:16.167Z,22.84
2019-06-25T03:27:04.632Z,22.82
2019-06-25T03:27:45.768Z,22.91
2019-06-25T03:28:27.274Z,22.94
2019-06-25T03:29:08.122Z,22.88
2019-06-25T03:29:51.704Z,23.01
2019-06-25T03:30:32.450Z,22.97
2019-06-25T03:31:14.769Z,22.91
2019-06-25T03:32:06.122Z,22.89
2019-06-25T03:32:37.712Z,22.93
2019-06-25T03:33:19.756Z,23.11
2019-06-25T03:34:02.216Z,23.12
2019-06-25T03:34:44.299Z,23.11
2019-06-25T03:35:28.416Z,23.04
2019-06-25T03:36:10.023Z,23.12
2019-06-25T03:38:15.698Z,23.15
2019-06-25T03:40:05.872Z,23.31
2019-06-25T03:40:46.447Z,23.23
2019-06-25T03:41:26.906Z,23.31
2019-06-25T03:42:07.381Z,23.26
2019-06-25T03:42:47.851Z,23.39
2019-06-25T03:43:28.361Z,23.32
2019-06-25T03:44:08.819Z,23.34
2019-06-25T03:44:50.247Z,23.29
2019-06-25T03:45:30.652Z,23.38
2019-06-25T03:46:11.118Z,23.38
2019-06-25T03:46:51.794Z,23.42
2019-06-25T03:47:32.285Z,23.44
2019-06-25T03:48:53.309Z,23.42
2019-06-25T03:49:33.799Z,23.42
2019-06-25T03:50:14.353Z,23.44
2019-06-25T03:50:54.704Z,23.54
2019-06-25T03:51:35.225Z,23.44
2019-06-25T03:52:15.800Z,23.5
2019-06-25T03:52:56.336Z,23.52
2019-06-25T03:53:36.907Z,23.47
2019-06-25T03:54:17.512Z,23.39
2019-06-25T03:54:58.580Z,23.44
2019-06-25T03:55:39.096Z,23.42
2019-06-25T03:56:19.528Z,23.44
2019-06-25T03:57:00.012Z,23.42
2019-06-25T03:57:40.486Z,23.42
2019-06-25T03:58:20.952Z,23.39
2019-06-25T03:59:01.670Z,23.47
2019-06-25T03:59:42.135Z,23.6
2019-06-25T04:00:22.653Z,23.54
2019-06-25T04:01:03.121Z,23.59
2019-06-25T04:01:43.785Z,23.54
2019-06-25T04:02:24.287Z,23.64
2019-06-25T04:03:04.759Z,23.64
2019-06-25T04:03:45.208Z,23.71
2019-06-25T04:04:25.676Z,23.68
2019-06-25T04:05:06.145Z,23.63
2019-06-25T04:05:47.401Z,23.72
2019-06-25T04:06:27.367Z,23.68
2019-06-25T04:07:07.828Z,23.71
2019-06-25T04:07:48.316Z,23.78
2019-06-25T04:08:28.742Z,23.75
2019-06-25T04:09:09.201Z,23.78
2019-06-25T04:09:49.795Z,23.78
2019-06-25T04:10:30.283Z,23.81
2019-06-25T04:11:10.713Z,23.81
2019-06-25T04:11:52.725Z,23.86
2019-06-25T04:12:31.719Z,23.84
2019-06-25T04:13:12.213Z,23.94
2019-06-25T04:13:52.719Z,24.02
2019-06-25T04:14:33.197Z,24.02
2019-06-25T04:15:13.831Z,24.11
2019-06-25T04:15:55.072Z,24.18
2019-06-25T04:16:35.564Z,24.21
2019-06-25T04:17:16.401Z,24.36
2019-06-25T04:17:57.273Z,24.36
2019-06-25T04:18:38.267Z,24.46
2019-06-25T04:19:19.023Z,24.44
2019-06-25T04:19:59.473Z,24.48
2019-06-25T04:20:41.312Z,24.63
2019-06-25T04:21:21.798Z,24.66
2019-06-25T04:22:02.251Z,24.59
2019-06-25T04:22:42.735Z,24.6
2019-06-25T04:23:23.158Z,24.67
2019-06-25T04:24:03.655Z,24.84
2019-06-25T04:24:44.117Z,24.86
2019-06-25T04:25:27.097Z,24.84
2019-06-25T04:26:05.055Z,24.99
2019-06-25T04:26:45.522Z,24.84
2019-06-25T04:27:26.770Z,24.83
2019-06-25T04:28:07.294Z,24.71
2019-06-25T04:28:47.752Z,24.67
2019-06-25T05:06:14.465Z,25.16
2019-06-25T05:06:57.737Z,25.04
2019-06-25T05:07:40.953Z,24.99
2019-06-25T05:08:22.316Z,24.97
2019-06-25T05:09:06.421Z,24.94
2019-06-25T05:09:49.596Z,24.84
2019-06-25T05:10:30.039Z,24.92
2019-06-25T05:11:53.362Z,24.92
2019-06-25T05:12:37.349Z,24.87
2019-06-25T05:13:17.888Z,24.82
2019-06-25T05:13:58.659Z,24.87
2019-06-25T05:14:38.918Z,25.08
2019-06-25T05:15:19.554Z,25.07
2019-06-25T05:16:00.070Z,25.2
2019-06-25T05:16:40.567Z,25.36
2019-06-25T05:17:21.112Z,25.36
2019-06-25T05:18:01.685Z,25.38
2019-06-25T05:19:22.643Z,25.63
2019-06-25T05:20:03.153Z,25.74
2019-06-25T05:20:43.680Z,25.85
2019-06-25T05:22:04.902Z,26.01
2019-06-25T05:22:47.127Z,25.96
2019-06-25T05:23:27.572Z,25.93
2019-06-25T05:24:08.275Z,25.86
2019-06-25T05:24:48.717Z,25.85
2019-06-25T05:25:29.211Z,25.76
2019-06-25T05:26:09.735Z,25.66
2019-06-25T05:26:51.283Z,25.46
2019-06-25T05:27:32.463Z,25.59
2019-06-25T05:28:13.010Z,25.56
2019-06-25T05:28:53.853Z,25.49
2019-06-25T05:32:13.613Z,25.53
2019-06-25T05:33:52.071Z,25.39
2019-06-25T05:34:32.427Z,25.34
2019-06-25T05:35:12.892Z,25.27
2019-06-25T05:35:53.376Z,25.3
2019-06-25T05:36:33.835Z,25.3
2019-06-25T05:37:16.646Z,25.38
2019-06-25T05:37:57.462Z,25.44
2019-06-25T05:38:37.920Z,25.45
2019-06-25T05:39:21.093Z,25.53
2019-06-25T05:40:01.729Z,25.59
2019-06-25T05:40:42.168Z,25.71
2019-06-25T05:41:24.492Z,25.81
2019-06-25T05:42:04.998Z,25.82
2019-06-25T05:42:45.445Z,25.83
2019-06-25T05:43:26.248Z,25.94
2019-06-25T05:44:06.835Z,25.97
2019-06-25T05:44:47.406Z,25.81
2019-06-25T05:45:27.799Z,25.81
2019-06-25T05:46:09.790Z,25.75
2019-06-25T05:46:50.307Z,25.76
2019-06-25T05:48:50.823Z,25.83
2019-06-25T05:49:34.529Z,25.93
2019-06-25T05:50:16.041Z,26.08
2019-06-25T05:50:57.261Z,26.11
2019-06-25T05:51:37.910Z,26.08
2019-06-25T05:52:18.375Z,26.12
2019-06-25T05:52:58.865Z,26.31
2019-06-25T05:53:39.387Z,26.34
2019-06-25T05:54:19.911Z,26.28
2019-06-25T05:55:00.401Z,26.34
2019-06-25T05:55:40.931Z,26.41
2019-06-25T05:56:21.429Z,26.36
2019-06-25T05:57:01.944Z,26.51
2019-06-25T05:57:42.529Z,26.35
2019-06-25T05:58:22.991Z,26.34
2019-06-25T05:59:03.512Z,26.36
2019-06-25T05:59:44.095Z,26.36
2019-06-25T06:00:24.650Z,26.36
2019-06-25T06:01:07.742Z,26.41
2019-06-25T06:01:48.333Z,26.39
2019-06-25T06:02:29.150Z,26.32
2019-06-25T06:03:19.594Z,26.36
2019-06-25T06:03:50.508Z,26.41
2019-06-25T06:04:30.905Z,26.34
2019-06-25T06:05:11.510Z,26.38
2019-06-25T06:05:52.029Z,26.38
2019-06-25T06:06:32.514Z,26.42
2019-06-25T06:07:13.045Z,26.46
2019-06-25T06:07:53.582Z,26.49
2019-06-25T06:08:34.018Z,26.38
2019-06-25T06:09:14.454Z,26.31
2019-06-25T06:09:54.955Z,26.28
2019-06-25T06:10:35.525Z,26.35
2019-06-25T06:11:16.045Z,26.28
2019-06-25T06:11:56.509Z,26.24
2019-06-25T06:12:37.015Z,26.16
2019-06-25T06:13:18.555Z,26.09
2019-06-25T06:13:59.030Z,26.01
2019-06-25T06:14:40.579Z,26.01
2019-06-25T06:15:21.661Z,26.01
2019-06-25T06:16:02.240Z,26.06
2019-06-25T06:16:42.800Z,26.2
2019-06-25T06:17:23.258Z,26.2
2019-06-25T06:18:03.726Z,26.36
2019-06-25T06:18:44.206Z,26.47
2019-06-25T06:19:24.990Z,26.47
2019-06-25T06:20:05.472Z,26.6
2019-06-25T06:20:45.911Z,26.66
2019-06-25T06:21:26.432Z,26.72
2019-06-25T06:22:06.907Z,26.66
2019-06-25T06:22:47.647Z,26.73
2019-06-25T06:23:31.033Z,26.71
2019-06-25T06:24:12.566Z,26.71
2019-06-25T06:24:55.274Z,26.69
2019-06-25T06:25:37.674Z,26.69
2019-06-25T06:26:19.100Z,26.71
2019-06-25T06:26:58.665Z,26.72
2019-06-25T06:27:40.153Z,26.72
2019-06-25T06:28:20.658Z,26.75
2019-06-25T06:29:02.991Z,26.72
2019-06-25T06:29:43.428Z,26.72
2019-06-25T06:30:25.187Z,26.66
2019-06-25T06:31:16.137Z,26.66
2019-06-25T06:31:46.271Z,26.59
2019-06-25T06:32:26.884Z,26.66
2019-06-25T06:33:08.800Z,26.65
2019-06-25T06:33:50.508Z,26.56
2019-06-25T06:34:29.884Z,26.56
2019-06-25T06:35:10.388Z,26.54
2019-06-25T06:35:50.923Z,26.59
2019-06-25T06:36:31.498Z,26.68
2019-06-25T06:37:12.236Z,26.65
2019-06-25T06:37:52.870Z,26.61
2019-06-25T06:38:37.768Z,26.61
2019-06-25T06:39:18.952Z,26.61
2019-06-25T06:39:59.818Z,26.72
2019-06-25T06:40:40.639Z,26.64
2019-06-25T06:41:22.608Z,26.76
2019-06-25T06:42:02.953Z,26.71
2019-06-25T06:42:43.459Z,26.79
2019-06-25T06:43:24.027Z,26.94
2019-06-25T06:44:06.864Z,26.9
2019-06-25T06:44:47.375Z,27.03
2019-06-25T06:45:27.862Z,26.98
2019-06-25T06:46:08.399Z,27.06
2019-06-25T06:46:48.877Z,27.12
2019-06-25T06:47:29.424Z,27.27
2019-06-25T06:48:11.059Z,27.25
2019-06-25T06:48:51.849Z,27.43
2019-06-25T06:49:32.471Z,27.55
2019-06-25T06:50:13.599Z,27.49
2019-06-25T06:50:54.205Z,27.65
2019-06-25T06:51:34.795Z,27.76
2019-06-25T06:52:56.158Z,27.81
2019-06-25T06:53:37.013Z,27.86
2019-06-25T06:54:17.526Z,27.77
2019-06-25T06:54:58.130Z,27.9
2019-06-25T06:55:39.427Z,28.01
2019-06-25T06:56:24.280Z,28.09
2019-06-25T06:57:03.886Z,28.18
2019-06-25T06:58:24.913Z,28.25
2019-06-25T06:59:05.435Z,28.2
2019-06-25T06:59:45.898Z,28.3
2019-06-25T07:00:26.784Z,28.38
2019-06-25T07:01:08.022Z,28.39
2019-06-25T07:01:48.732Z,28.39
2019-06-25T07:02:30.855Z,28.48
2019-06-25T07:03:12.332Z,28.55
2019-06-25T07:03:53.860Z,28.58
2019-06-25T07:04:34.039Z,28.52
2019-06-25T07:05:14.579Z,28.39
2019-06-25T07:05:55.804Z,28.39
2019-06-25T07:06:36.364Z,28.39
2019-06-25T07:07:16.941Z,28.32
2019-06-25T07:07:59.906Z,28.32
2019-06-25T07:08:40.704Z,28.25
2019-06-25T07:09:21.269Z,28.25
2019-06-25T07:10:01.942Z,28.23
2019-06-25T07:10:43.268Z,28.39
2019-06-25T07:11:24.895Z,28.4
2019-06-25T07:12:05.966Z,28.4
2019-06-25T07:14:04.813Z,28.39
2019-06-25T07:14:45.586Z,28.4
2019-06-25T07:15:26.147Z,28.43
2019-06-25T07:16:07.617Z,28.43
2019-06-25T07:16:48.089Z,28.46
2019-06-25T07:17:28.588Z,28.52
2019-06-25T07:18:09.042Z,28.51
2019-06-25T07:18:51.470Z,28.4
2019-06-25T07:19:31.982Z,28.48
2019-06-25T07:20:12.578Z,28.57
2019-06-25T07:20:53.093Z,28.7
2019-06-25T07:22:17.044Z,28.88
2019-06-25T07:22:54.937Z,28.95
2019-06-25T07:23:36.313Z,29.12
2019-06-25T07:24:16.919Z,29.21
2019-06-25T07:24:57.740Z,29.35
2019-06-25T07:25:39.080Z,29.35
2019-06-25T07:26:21.270Z,29.35
2019-06-25T07:27:01.820Z,29.36
2019-06-25T07:27:43.312Z,29.42
2019-06-25T07:28:22.909Z,29.33
2019-06-25T07:29:05.934Z,29.42
2019-06-25T07:29:48.086Z,29.44
2019-06-25T07:30:28.900Z,29.48
2019-06-25T07:31:09.427Z,29.62
2019-06-25T07:31:49.903Z,29.58
2019-06-25T07:32:31.543Z,29.7
2019-06-25T07:33:12.750Z,29.66
2019-06-25T07:34:08.160Z,29.82
2019-06-25T07:34:34.070Z,29.94
2019-06-25T07:35:16.531Z,30.15
2019-06-25T07:35:57.070Z,30.21
2019-06-25T07:36:38.573Z,30.19
2019-06-25T07:37:19.324Z,30.15
2019-06-25T07:38:03.437Z,30.06
2019-06-25T07:38:43.977Z,29.97
2019-06-25T07:39:24.694Z,30.06
2019-06-25T07:40:06.388Z,30.04
2019-06-25T07:40:48.026Z,30.03
2019-06-25T07:41:28.570Z,29.95
2019-06-25T07:42:09.119Z,29.95
2019-06-25T07:42:49.641Z,29.85
2019-06-25T07:43:32.173Z,29.84
2019-06-25T07:44:12.240Z,29.79
2019-06-25T07:44:54.661Z,29.76
2019-06-25T07:45:36.178Z,29.85
2019-06-25T07:46:16.073Z,29.85
2019-06-25T07:54:29.550Z,30.83
2019-06-25T07:55:09.682Z,30.83
2019-06-25T07:55:50.769Z,30.86
2019-06-25T07:56:36.324Z,30.79
2019-06-25T07:57:11.844Z,30.64
2019-06-25T07:57:52.425Z,30.73
2019-06-25T07:58:33.827Z,30.73
2019-06-25T07:59:14.579Z,30.82
2019-06-25T07:59:55.813Z,30.86
2019-06-25T08:00:36.457Z,31
2019-06-25T08:01:17.121Z,30.9
2019-06-25T08:01:57.650Z,30.93
2019-06-25T08:02:38.725Z,30.96
2019-06-25T08:03:19.485Z,30.91
2019-06-25T08:04:00.081Z,31.03
2019-06-25T08:04:40.965Z,31.15
2019-06-25T08:05:21.572Z,31.13
2019-06-25T08:06:05.362Z,31.28
2019-06-25T08:06:45.813Z,31.54
2019-06-25T08:07:26.270Z,31.68
2019-06-25T08:08:07.035Z,31.52
2019-06-25T08:08:47.533Z,31.6
2019-06-25T08:09:28.723Z,31.76
2019-06-25T08:10:09.832Z,31.85
2019-06-25T08:10:50.786Z,32.06
2019-06-25T08:11:33.636Z,32.07
2019-06-25T08:12:14.632Z,32.09
2019-06-25T08:12:55.724Z,32.13
2019-06-25T08:13:36.292Z,31.92
2019-06-25T08:14:18.078Z,31.94
2019-06-25T08:15:00.731Z,31.78
2019-06-25T08:15:41.766Z,31.92
2019-06-25T08:16:22.907Z,31.95
2019-06-25T08:17:07.596Z,32.06
2019-06-25T08:17:48.125Z,31.98
2019-06-25T08:18:29.128Z,31.91
2019-06-25T08:19:10.160Z,31.9
2019-06-25T08:19:51.672Z,31.94
2019-06-25T08:20:32.870Z,32.06
2019-06-25T08:21:13.441Z,32.13
2019-06-25T08:21:54.302Z,32.25
2019-06-25T08:22:35.642Z,32.43
2019-06-25T08:23:15.713Z,32.61
2019-06-25T08:23:56.380Z,32.72
2019-06-25T08:24:36.849Z,32.66
2019-06-25T08:25:20.688Z,32.73
2019-06-25T08:26:04.745Z,32.83
2019-06-25T08:26:45.336Z,33
2019-06-25T08:27:26.000Z,33.06
2019-06-25T08:28:06.543Z,33.14
2019-06-25T08:28:47.090Z,32.99
2019-06-25T08:29:27.559Z,32.99
2019-06-25T08:30:08.218Z,32.98
2019-06-25T08:30:50.400Z,32.88
2019-06-25T08:31:30.898Z,32.88
2019-06-25T08:32:11.556Z,32.63
2019-06-25T08:32:52.262Z,32.54
2019-06-25T08:33:32.750Z,32.51
2019-06-25T08:34:13.255Z,32.43
2019-06-25T08:34:53.909Z,32.39
2019-06-25T08:35:41.743Z,32.32
2019-06-25T08:36:22.773Z,32.29
2019-06-25T08:37:03.237Z,32.34
2019-06-25T08:37:44.031Z,32.39
2019-06-25T08:38:24.413Z,32.46
2019-06-25T08:39:05.651Z,32.56
2019-06-25T08:39:46.758Z,32.51
2019-06-25T08:40:27.698Z,32.58
2019-06-25T08:41:09.955Z,32.66
2019-06-25T08:41:52.376Z,32.78
2019-06-25T08:42:32.656Z,32.84
2019-06-25T08:43:59.811Z,32.53
2019-06-25T08:45:57.585Z,32.41
2019-06-25T08:46:39.127Z,32.4
2019-06-25T08:47:20.583Z,32.41
2019-06-25T08:48:01.587Z,32.36
2019-06-25T08:48:41.441Z,32.43
2019-06-25T08:49:22.075Z,32.47
2019-06-25T08:50:02.576Z,32.56
2019-06-25T08:50:43.175Z,32.53
2019-06-25T08:51:24.012Z,32.63
2019-06-25T08:52:04.708Z,32.71
2019-06-25T08:52:57.280Z,32.72
2019-06-25T08:53:26.235Z,32.72
2019-06-25T08:54:50.737Z,32.72
2019-06-25T08:55:31.287Z,32.71
2019-06-25T08:56:11.839Z,32.85
2019-06-25T08:56:52.335Z,33.07
2019-06-25T08:57:32.818Z,33.28
2019-06-25T08:58:13.497Z,33.31
2019-06-25T08:58:54.032Z,33.47
2019-06-25T08:59:34.602Z,33.43
2019-06-25T09:00:15.030Z,33.45
2019-06-25T09:00:55.634Z,33.26
2019-06-25T09:01:36.087Z,33.44
2019-06-25T09:02:16.619Z,33.4
2019-06-25T09:02:57.087Z,33.37
2019-06-25T09:03:38.529Z,33.55
2019-06-25T09:04:19.022Z,33.63
2019-06-25T09:05:03.302Z,33.86
2019-06-25T09:05:40.519Z,34.08
2019-06-25T09:06:21.209Z,34.05
2019-06-25T09:07:04.169Z,33.89
2019-06-25T09:07:44.383Z,33.89
2019-06-25T09:08:25.157Z,33.96
2019-06-25T09:09:05.549Z,34
2019-06-25T09:09:46.344Z,33.93
2019-06-25T09:11:07.403Z,33.96
2019-06-25T09:11:47.896Z,33.86
2019-06-25T09:12:28.766Z,33.72
2019-06-25T09:13:11.317Z,33.75
2019-06-25T09:13:53.084Z,33.86
2019-06-25T09:14:34.602Z,33.9
2019-06-25T09:15:16.105Z,33.82
2019-06-25T09:15:56.104Z,33.77
2019-06-25T09:16:36.622Z,33.87
2019-06-25T09:17:18.167Z,33.86
2019-06-25T09:17:58.157Z,33.86
2019-06-25T09:18:38.744Z,33.9
2019-06-25T09:19:19.154Z,33.99
2019-06-25T09:19:59.957Z,33.94
2019-06-25T09:20:40.531Z,33.9
2019-06-25T09:21:21.022Z,33.94
2019-06-25T09:22:01.776Z,34.09
2019-06-25T09:22:42.237Z,34.11
2019-06-25T09:23:22.883Z,34.23
2019-06-25T09:24:07.143Z,34.28
2019-06-25T09:24:47.712Z,34.36
2019-06-25T09:25:30.962Z,34.48
2019-06-25T09:26:11.719Z,34.6
2019-06-25T09:26:52.309Z,34.72
2019-06-25T09:27:32.828Z,34.75
2019-06-25T09:28:14.324Z,34.75
2019-06-25T09:28:54.787Z,34.8
2019-06-25T09:29:36.902Z,34.73
2019-06-25T09:30:17.665Z,34.65
2019-06-25T09:30:59.371Z,34.48
2019-06-25T09:31:48.182Z,34.27
2019-06-25T09:32:35.021Z,34.14
2019-06-25T09:33:17.819Z,34.09
2019-06-25T09:34:00.211Z,34.08
2019-06-25T09:34:40.331Z,34.06
2019-06-25T09:35:20.844Z,34.19
2019-06-25T09:36:01.334Z,34.26
2019-06-25T09:36:41.991Z,34.27
2019-06-25T09:37:22.717Z,34.19
2019-06-25T09:38:03.808Z,34.26
2019-06-25T09:38:44.592Z,34.28
2019-06-25T09:39:25.010Z,34.16
2019-06-25T09:40:05.562Z,34.3
2019-06-25T09:40:46.878Z,34.23
2019-06-25T09:41:29.783Z,34.33
2019-06-25T09:42:10.369Z,34.42
2019-06-25T09:42:53.787Z,34.46
2019-06-25T09:43:34.445Z,34.58
2019-06-25T09:44:14.859Z,34.56
2019-06-25T09:44:56.369Z,34.5
2019-06-25T09:45:36.828Z,34.75
2019-06-25T09:46:17.386Z,34.88
2019-06-25T09:46:59.690Z,34.95
2019-06-25T09:47:40.561Z,34.94
2019-06-25T09:48:20.853Z,34.94
2019-06-25T09:49:01.457Z,35.03
2019-06-25T09:49:41.929Z,34.91
2019-06-25T09:50:23.472Z,34.98
2019-06-25T09:51:04.049Z,34.99
2019-06-25T09:51:44.565Z,35.07
2019-06-25T09:52:25.075Z,35.17
2019-06-25T09:53:06.036Z,35.39
2019-06-25T09:53:48.003Z,35.66
2019-06-25T09:54:28.462Z,35.69
2019-06-25T09:55:11.885Z,35.81
2019-06-25T09:55:53.172Z,35.83
2019-06-25T09:56:34.301Z,35.77
2019-06-25T09:57:15.300Z,35.81